sensor_id;sensor_type;location;lat;lon;timestamp;temperature;humidity
770;DHT22;368;48.698;9.116;2024-01-10T00:02:22;-5.30;99.90
770;DHT22;368;48.698;9.116;2024-01-10T00:04:49;-5.20;99.90
770;DHT22;368;48.698;9.116;2024-01-10T00:07:17;-5.40;99.90
770;DHT22;368;48.698;9.116;2024-01-10T00:09:44;-5.40;99.90
770;DHT22;368;48.698;9.116;2024-01-10T00:12:11;-5.40;99.90
770;DHT22;368;48.698;9.116;2024-01-10T00:14:38;-5.20;99.90
770;DHT22;368;48.698;9.116;2024-01-10T00:17:05;-5.40;99.90
770;DHT22;368;48.698;9.116;2024-01-10T00:19:31;-5.50;99.90
770;DHT22;368;48.698;9.116;2024-01-10T00:21:58;-5.40;99.90
770;DHT22;368;48.698;9.116;2024-01-10T00:24:26;-5.30;99.90
770;DHT22;368;48.698;9.116;2024-01-10T00:26:53;-5.30;99.90
770;DHT22;368;48.698;9.116;2024-01-10T00:29:20;-5.60;99.90
770;DHT22;368;48.698;9.116;2024-01-10T00:31:47;-5.50;99.90
770;DHT22;368;48.698;9.116;2024-01-10T00:34:14;-6.00;99.90
770;DHT22;368;48.698;9.116;2024-01-10T00:36:41;-5.60;99.90
770;DHT22;368;48.698;9.116;2024-01-10T00:39:08;-5.50;99.90
770;DHT22;368;48.698;9.116;2024-01-10T00:41:36;-5.80;99.90
770;DHT22;368;48.698;9.116;2024-01-10T00:44:03;-5.70;99.90
770;DHT22;368;48.698;9.116;2024-01-10T00:46:30;-5.70;99.90
770;DHT22;368;48.698;9.116;2024-01-10T00:48:56;-5.60;99.90
770;DHT22;368;48.698;9.116;2024-01-10T00:51:23;-5.50;99.90
770;DHT22;368;48.698;9.116;2024-01-10T00:53:50;-5.30;99.90
770;DHT22;368;48.698;9.116;2024-01-10T00:56:17;-5.20;99.90
770;DHT22;368;48.698;9.116;2024-01-10T00:58:45;-5.30;99.90
770;DHT22;368;48.698;9.116;2024-01-10T01:01:12;-5.10;99.90
770;DHT22;368;48.698;9.116;2024-01-10T01:03:39;-5.30;99.90
770;DHT22;368;48.698;9.116;2024-01-10T01:06:05;-5.10;99.90
770;DHT22;368;48.698;9.116;2024-01-10T01:08:32;-5.20;99.90
770;DHT22;368;48.698;9.116;2024-01-10T01:10:59;-5.00;99.90
770;DHT22;368;48.698;9.116;2024-01-10T01:13:26;-5.00;99.90
770;DHT22;368;48.698;9.116;2024-01-10T01:15:54;-5.10;99.90
770;DHT22;368;48.698;9.116;2024-01-10T01:18:21;-5.00;99.90
770;DHT22;368;48.698;9.116;2024-01-10T01:20:48;-5.10;99.90
770;DHT22;368;48.698;9.116;2024-01-10T01:23:15;-5.10;99.90
770;DHT22;368;48.698;9.116;2024-01-10T01:25:42;-5.00;99.90
770;DHT22;368;48.698;9.116;2024-01-10T01:28:09;-4.90;99.90
770;DHT22;368;48.698;9.116;2024-01-10T01:30:36;-4.80;99.90
770;DHT22;368;48.698;9.116;2024-01-10T01:33:06;-4.90;99.90
770;DHT22;368;48.698;9.116;2024-01-10T01:35:33;-4.90;99.90
770;DHT22;368;48.698;9.116;2024-01-10T01:37:59;-4.80;99.90
770;DHT22;368;48.698;9.116;2024-01-10T01:40:26;-4.80;99.90
770;DHT22;368;48.698;9.116;2024-01-10T01:42:53;-4.80;99.90
770;DHT22;368;48.698;9.116;2024-01-10T01:45:20;-4.50;99.90
770;DHT22;368;48.698;9.116;2024-01-10T01:47:47;-4.50;99.90
770;DHT22;368;48.698;9.116;2024-01-10T01:50:15;-4.70;99.90
770;DHT22;368;48.698;9.116;2024-01-10T01:52:43;-4.50;99.90
770;DHT22;368;48.698;9.116;2024-01-10T01:55:10;-4.50;99.90
770;DHT22;368;48.698;9.116;2024-01-10T01:57:37;-4.60;99.90
770;DHT22;368;48.698;9.116;2024-01-10T02:00:06;-4.70;99.90
770;DHT22;368;48.698;9.116;2024-01-10T02:02:34;-4.50;99.90
770;DHT22;368;48.698;9.116;2024-01-10T02:05:02;-4.60;99.90
770;DHT22;368;48.698;9.116;2024-01-10T02:07:30;-4.60;99.90
770;DHT22;368;48.698;9.116;2024-01-10T02:09:57;-4.70;99.90
770;DHT22;368;48.698;9.116;2024-01-10T02:12:24;-4.60;99.90
770;DHT22;368;48.698;9.116;2024-01-10T02:14:52;-4.60;99.90
770;DHT22;368;48.698;9.116;2024-01-10T02:17:18;-4.90;99.90
770;DHT22;368;48.698;9.116;2024-01-10T02:19:45;-4.80;99.90
770;DHT22;368;48.698;9.116;2024-01-10T02:22:12;-4.80;99.90
770;DHT22;368;48.698;9.116;2024-01-10T02:24:40;-4.80;99.90
770;DHT22;368;48.698;9.116;2024-01-10T02:27:08;-4.80;99.90
770;DHT22;368;48.698;9.116;2024-01-10T02:29:35;-4.70;99.90
770;DHT22;368;48.698;9.116;2024-01-10T02:32:02;-4.70;99.90
770;DHT22;368;48.698;9.116;2024-01-10T02:34:30;-4.70;99.90
770;DHT22;368;48.698;9.116;2024-01-10T02:36:57;-4.80;99.90
770;DHT22;368;48.698;9.116;2024-01-10T02:39:23;-4.70;99.90
770;DHT22;368;48.698;9.116;2024-01-10T02:41:50;-4.60;99.90
770;DHT22;368;48.698;9.116;2024-01-10T02:44:18;-4.60;99.90
770;DHT22;368;48.698;9.116;2024-01-10T02:46:45;-4.60;99.90
770;DHT22;368;48.698;9.116;2024-01-10T02:49:12;-4.50;99.90
770;DHT22;368;48.698;9.116;2024-01-10T02:51:39;-4.50;99.90
770;DHT22;368;48.698;9.116;2024-01-10T02:54:06;-4.50;99.90
770;DHT22;368;48.698;9.116;2024-01-10T02:56:33;-4.40;99.90
770;DHT22;368;48.698;9.116;2024-01-10T02:59:00;-4.40;99.90
770;DHT22;368;48.698;9.116;2024-01-10T03:01:28;-4.40;99.90
770;DHT22;368;48.698;9.116;2024-01-10T03:03:54;-4.40;99.90
770;DHT22;368;48.698;9.116;2024-01-10T03:06:21;-4.50;99.90
770;DHT22;368;48.698;9.116;2024-01-10T03:08:48;-4.50;99.90
770;DHT22;368;48.698;9.116;2024-01-10T03:11:15;-4.40;99.90
770;DHT22;368;48.698;9.116;2024-01-10T03:13:43;-4.50;99.90
770;DHT22;368;48.698;9.116;2024-01-10T03:16:12;-4.50;99.90
770;DHT22;368;48.698;9.116;2024-01-10T03:18:40;-4.40;99.90
770;DHT22;368;48.698;9.116;2024-01-10T03:21:07;-4.40;99.90
770;DHT22;368;48.698;9.116;2024-01-10T03:23:34;-4.50;99.90
770;DHT22;368;48.698;9.116;2024-01-10T03:26:01;-4.50;99.90
770;DHT22;368;48.698;9.116;2024-01-10T03:28:28;-4.40;99.90
770;DHT22;368;48.698;9.116;2024-01-10T03:30:54;-4.40;99.90
770;DHT22;368;48.698;9.116;2024-01-10T03:33:21;-4.40;99.90
770;DHT22;368;48.698;9.116;2024-01-10T03:35:49;-4.40;99.90
770;DHT22;368;48.698;9.116;2024-01-10T03:38:16;-4.40;99.90
770;DHT22;368;48.698;9.116;2024-01-10T03:40:43;-4.50;99.90
770;DHT22;368;48.698;9.116;2024-01-10T03:43:10;-4.40;99.90
770;DHT22;368;48.698;9.116;2024-01-10T03:45:37;-4.50;99.90
770;DHT22;368;48.698;9.116;2024-01-10T03:48:05;-4.40;99.90
770;DHT22;368;48.698;9.116;2024-01-10T03:50:32;-4.50;99.90
770;DHT22;368;48.698;9.116;2024-01-10T03:53:00;-4.40;99.90
770;DHT22;368;48.698;9.116;2024-01-10T03:55:27;-4.50;99.90
770;DHT22;368;48.698;9.116;2024-01-10T03:57:54;-4.40;99.90
770;DHT22;368;48.698;9.116;2024-01-10T04:00:20;-4.40;99.90
770;DHT22;368;48.698;9.116;2024-01-10T04:02:47;-4.40;99.90
770;DHT22;368;48.698;9.116;2024-01-10T04:05:14;-4.50;99.90
770;DHT22;368;48.698;9.116;2024-01-10T04:07:41;-4.40;99.90
770;DHT22;368;48.698;9.116;2024-01-10T04:10:10;-4.40;99.90
770;DHT22;368;48.698;9.116;2024-01-10T04:12:39;-4.40;99.90
770;DHT22;368;48.698;9.116;2024-01-10T04:15:06;-4.30;99.90
770;DHT22;368;48.698;9.116;2024-01-10T04:17:33;-4.10;99.90
770;DHT22;368;48.698;9.116;2024-01-10T04:20:00;-4.30;99.90
770;DHT22;368;48.698;9.116;2024-01-10T04:22:27;-4.50;99.90
770;DHT22;368;48.698;9.116;2024-01-10T04:24:55;-4.40;99.90
770;DHT22;368;48.698;9.116;2024-01-10T04:27:23;-4.30;99.90
770;DHT22;368;48.698;9.116;2024-01-10T04:29:50;-4.40;99.90
770;DHT22;368;48.698;9.116;2024-01-10T04:32:17;-4.40;99.90
770;DHT22;368;48.698;9.116;2024-01-10T04:34:43;-4.40;99.90
770;DHT22;368;48.698;9.116;2024-01-10T04:37:10;-4.30;99.90
770;DHT22;368;48.698;9.116;2024-01-10T04:39:37;-4.20;99.90
770;DHT22;368;48.698;9.116;2024-01-10T04:42:06;-4.40;99.90
770;DHT22;368;48.698;9.116;2024-01-10T04:44:35;-4.50;99.90
770;DHT22;368;48.698;9.116;2024-01-10T04:47:01;-4.50;99.90
770;DHT22;368;48.698;9.116;2024-01-10T04:49:28;-4.50;99.90
770;DHT22;368;48.698;9.116;2024-01-10T04:51:55;-4.40;99.90
770;DHT22;368;48.698;9.116;2024-01-10T04:54:22;-4.50;99.90
770;DHT22;368;48.698;9.116;2024-01-10T04:56:49;-4.50;99.90
770;DHT22;368;48.698;9.116;2024-01-10T04:59:16;-4.60;99.90
770;DHT22;368;48.698;9.116;2024-01-10T05:01:44;-4.60;99.90
770;DHT22;368;48.698;9.116;2024-01-10T05:04:11;-4.80;99.90
770;DHT22;368;48.698;9.116;2024-01-10T05:06:37;-4.70;99.90
770;DHT22;368;48.698;9.116;2024-01-10T05:09:05;-4.90;99.90
770;DHT22;368;48.698;9.116;2024-01-10T05:11:32;-4.80;99.90
770;DHT22;368;48.698;9.116;2024-01-10T05:14:01;-4.60;99.90
770;DHT22;368;48.698;9.116;2024-01-10T05:16:28;-4.70;99.90
770;DHT22;368;48.698;9.116;2024-01-10T05:18:57;-4.50;99.90
770;DHT22;368;48.698;9.116;2024-01-10T05:21:27;-4.70;99.90
770;DHT22;368;48.698;9.116;2024-01-10T05:23:53;-4.70;99.90
770;DHT22;368;48.698;9.116;2024-01-10T05:26:20;-4.80;99.90
770;DHT22;368;48.698;9.116;2024-01-10T05:28:47;-4.80;99.90
770;DHT22;368;48.698;9.116;2024-01-10T05:31:14;-4.80;99.90
770;DHT22;368;48.698;9.116;2024-01-10T05:33:40;-4.90;99.90
770;DHT22;368;48.698;9.116;2024-01-10T05:36:09;-5.20;99.90
770;DHT22;368;48.698;9.116;2024-01-10T05:38:38;-5.20;99.90
770;DHT22;368;48.698;9.116;2024-01-10T05:41:05;-5.20;99.90
770;DHT22;368;48.698;9.116;2024-01-10T05:43:32;-5.30;99.90
770;DHT22;368;48.698;9.116;2024-01-10T05:45:59;-5.20;99.90
770;DHT22;368;48.698;9.116;2024-01-10T05:48:26;-5.30;99.90
770;DHT22;368;48.698;9.116;2024-01-10T05:50:53;-5.00;99.90
770;DHT22;368;48.698;9.116;2024-01-10T05:53:24;-5.00;99.90
770;DHT22;368;48.698;9.116;2024-01-10T05:55:51;-5.10;99.90
770;DHT22;368;48.698;9.116;2024-01-10T05:58:18;-5.40;99.90
770;DHT22;368;48.698;9.116;2024-01-10T06:00:45;-5.30;99.90
770;DHT22;368;48.698;9.116;2024-01-10T06:03:12;-5.30;99.90
770;DHT22;368;48.698;9.116;2024-01-10T06:05:39;-5.30;99.90
770;DHT22;368;48.698;9.116;2024-01-10T06:08:06;-5.00;99.90
770;DHT22;368;48.698;9.116;2024-01-10T06:10:34;-5.30;99.90
770;DHT22;368;48.698;9.116;2024-01-10T06:13:01;-5.70;99.90
770;DHT22;368;48.698;9.116;2024-01-10T06:15:29;-5.70;99.90
770;DHT22;368;48.698;9.116;2024-01-10T06:17:55;-5.70;99.90
770;DHT22;368;48.698;9.116;2024-01-10T06:20:22;-5.70;99.90
770;DHT22;368;48.698;9.116;2024-01-10T06:22:49;-5.70;99.90
770;DHT22;368;48.698;9.116;2024-01-10T06:25:16;-5.50;99.90
770;DHT22;368;48.698;9.116;2024-01-10T06:27:44;-6.00;99.90
770;DHT22;368;48.698;9.116;2024-01-10T06:30:11;-5.90;99.90
770;DHT22;368;48.698;9.116;2024-01-10T06:32:38;-6.30;99.90
770;DHT22;368;48.698;9.116;2024-01-10T06:35:05;-6.20;99.90
770;DHT22;368;48.698;9.116;2024-01-10T06:37:34;-6.40;99.90
770;DHT22;368;48.698;9.116;2024-01-10T06:40:01;-6.10;99.90
770;DHT22;368;48.698;9.116;2024-01-10T06:42:29;-6.40;99.90
770;DHT22;368;48.698;9.116;2024-01-10T06:44:58;-6.20;99.90
770;DHT22;368;48.698;9.116;2024-01-10T06:47:24;-6.50;99.90
770;DHT22;368;48.698;9.116;2024-01-10T06:49:51;-6.10;99.90
770;DHT22;368;48.698;9.116;2024-01-10T06:52:18;-6.30;99.90
770;DHT22;368;48.698;9.116;2024-01-10T06:54:45;-6.00;99.90
770;DHT22;368;48.698;9.116;2024-01-10T06:57:12;-6.10;99.90
770;DHT22;368;48.698;9.116;2024-01-10T06:59:38;-5.90;99.90
770;DHT22;368;48.698;9.116;2024-01-10T07:02:07;-6.10;99.90
770;DHT22;368;48.698;9.116;2024-01-10T07:04:36;-5.80;99.90
770;DHT22;368;48.698;9.116;2024-01-10T07:07:03;-5.60;99.90
770;DHT22;368;48.698;9.116;2024-01-10T07:09:31;-5.80;99.90
770;DHT22;368;48.698;9.116;2024-01-10T07:11:57;-6.20;99.90
770;DHT22;368;48.698;9.116;2024-01-10T07:14:24;-6.20;99.90
770;DHT22;368;48.698;9.116;2024-01-10T07:16:51;-6.40;99.90
770;DHT22;368;48.698;9.116;2024-01-10T07:19:20;-6.60;99.90
770;DHT22;368;48.698;9.116;2024-01-10T07:21:49;-6.50;99.90
770;DHT22;368;48.698;9.116;2024-01-10T07:24:16;-6.40;99.90
770;DHT22;368;48.698;9.116;2024-01-10T07:26:43;-6.40;99.90
770;DHT22;368;48.698;9.116;2024-01-10T07:29:10;-6.30;99.90
770;DHT22;368;48.698;9.116;2024-01-10T07:31:36;-6.20;99.90
770;DHT22;368;48.698;9.116;2024-01-10T07:34:03;-6.20;99.90
770;DHT22;368;48.698;9.116;2024-01-10T07:36:33;-6.00;99.90
770;DHT22;368;48.698;9.116;2024-01-10T07:39:00;-5.80;99.90
770;DHT22;368;48.698;9.116;2024-01-10T07:41:28;-5.80;99.90
770;DHT22;368;48.698;9.116;2024-01-10T07:43:54;-5.90;99.90
770;DHT22;368;48.698;9.116;2024-01-10T07:46:21;-5.60;99.90
770;DHT22;368;48.698;9.116;2024-01-10T07:48:48;-5.60;99.90
770;DHT22;368;48.698;9.116;2024-01-10T07:51:15;-5.80;99.90
770;DHT22;368;48.698;9.116;2024-01-10T07:53:43;-5.30;99.90
770;DHT22;368;48.698;9.116;2024-01-10T07:56:10;-5.20;99.90
770;DHT22;368;48.698;9.116;2024-01-10T07:58:38;-5.10;99.90
770;DHT22;368;48.698;9.116;2024-01-10T08:01:05;-5.00;99.90
770;DHT22;368;48.698;9.116;2024-01-10T08:03:32;-5.10;99.90
770;DHT22;368;48.698;9.116;2024-01-10T08:05:59;-5.10;99.90
770;DHT22;368;48.698;9.116;2024-01-10T08:08:26;-4.90;99.90
770;DHT22;368;48.698;9.116;2024-01-10T08:10:56;-5.10;99.90
770;DHT22;368;48.698;9.116;2024-01-10T08:13:22;-5.00;99.90
770;DHT22;368;48.698;9.116;2024-01-10T08:15:49;-5.00;99.90
770;DHT22;368;48.698;9.116;2024-01-10T08:18:16;-5.00;99.90
770;DHT22;368;48.698;9.116;2024-01-10T08:20:43;-5.30;99.90
770;DHT22;368;48.698;9.116;2024-01-10T08:23:10;-5.10;99.90
770;DHT22;368;48.698;9.116;2024-01-10T08:25:36;-4.70;99.90
770;DHT22;368;48.698;9.116;2024-01-10T08:28:05;-4.60;99.90
770;DHT22;368;48.698;9.116;2024-01-10T08:30:32;-4.70;99.90
770;DHT22;368;48.698;9.116;2024-01-10T08:32:59;-4.60;99.90
770;DHT22;368;48.698;9.116;2024-01-10T08:35:26;-4.40;99.90
770;DHT22;368;48.698;9.116;2024-01-10T08:37:52;-4.40;99.90
770;DHT22;368;48.698;9.116;2024-01-10T08:40:19;-4.40;99.90
770;DHT22;368;48.698;9.116;2024-01-10T08:42:50;-4.30;99.90
770;DHT22;368;48.698;9.116;2024-01-10T08:45:19;-4.30;99.90
770;DHT22;368;48.698;9.116;2024-01-10T08:47:45;-4.20;99.90
770;DHT22;368;48.698;9.116;2024-01-10T08:50:12;-4.20;99.90
770;DHT22;368;48.698;9.116;2024-01-10T08:52:39;-4.30;99.90
770;DHT22;368;48.698;9.116;2024-01-10T08:55:06;-4.10;99.90
770;DHT22;368;48.698;9.116;2024-01-10T08:57:33;-4.10;99.90
770;DHT22;368;48.698;9.116;2024-01-10T09:00:00;-4.00;99.90
770;DHT22;368;48.698;9.116;2024-01-10T09:02:28;-4.10;99.90
770;DHT22;368;48.698;9.116;2024-01-10T09:04:55;-3.90;99.90
770;DHT22;368;48.698;9.116;2024-01-10T09:07:22;-4.00;99.90
770;DHT22;368;48.698;9.116;2024-01-10T09:09:48;-3.70;99.90
770;DHT22;368;48.698;9.116;2024-01-10T09:12:15;-3.70;99.90
770;DHT22;368;48.698;9.116;2024-01-10T09:14:42;-3.50;99.90
770;DHT22;368;48.698;9.116;2024-01-10T09:17:09;-3.90;99.90
770;DHT22;368;48.698;9.116;2024-01-10T09:19:37;-3.30;99.90
770;DHT22;368;48.698;9.116;2024-01-10T09:22:04;-3.90;99.90
770;DHT22;368;48.698;9.116;2024-01-10T09:24:30;-3.70;99.90
770;DHT22;368;48.698;9.116;2024-01-10T09:26:57;-3.40;99.90
770;DHT22;368;48.698;9.116;2024-01-10T09:29:25;-3.70;99.90
770;DHT22;368;48.698;9.116;2024-01-10T09:31:53;-3.20;99.90
770;DHT22;368;48.698;9.116;2024-01-10T09:34:20;-3.40;99.90
770;DHT22;368;48.698;9.116;2024-01-10T09:36:48;-3.40;99.90
770;DHT22;368;48.698;9.116;2024-01-10T09:39:15;-3.40;99.90
770;DHT22;368;48.698;9.116;2024-01-10T09:41:46;-3.40;99.90
770;DHT22;368;48.698;9.116;2024-01-10T09:44:14;-3.40;99.90
770;DHT22;368;48.698;9.116;2024-01-10T09:46:44;-3.30;99.90
770;DHT22;368;48.698;9.116;2024-01-10T09:49:12;-3.50;99.90
770;DHT22;368;48.698;9.116;2024-01-10T09:51:39;-3.40;99.90
770;DHT22;368;48.698;9.116;2024-01-10T09:54:07;-3.00;99.90
770;DHT22;368;48.698;9.116;2024-01-10T09:56:34;-3.20;99.90
770;DHT22;368;48.698;9.116;2024-01-10T09:59:03;-2.80;99.90
770;DHT22;368;48.698;9.116;2024-01-10T10:01:32;-2.80;99.90
770;DHT22;368;48.698;9.116;2024-01-10T10:04:03;-2.70;99.90
770;DHT22;368;48.698;9.116;2024-01-10T10:06:33;-2.60;99.90
770;DHT22;368;48.698;9.116;2024-01-10T10:09:00;-2.50;99.90
770;DHT22;368;48.698;9.116;2024-01-10T10:11:29;-2.50;99.90
770;DHT22;368;48.698;9.116;2024-01-10T10:13:56;-2.50;99.90
770;DHT22;368;48.698;9.116;2024-01-10T10:16:24;-2.30;99.90
770;DHT22;368;48.698;9.116;2024-01-10T10:18:51;-2.40;99.90
770;DHT22;368;48.698;9.116;2024-01-10T10:21:25;-2.40;99.90
770;DHT22;368;48.698;9.116;2024-01-10T10:23:59;-2.30;99.90
770;DHT22;368;48.698;9.116;2024-01-10T10:26:34;-2.30;99.90
770;DHT22;368;48.698;9.116;2024-01-10T10:29:01;-2.50;99.90
770;DHT22;368;48.698;9.116;2024-01-10T10:31:31;-2.40;99.90
770;DHT22;368;48.698;9.116;2024-01-10T10:34:00;-2.30;99.90
770;DHT22;368;48.698;9.116;2024-01-10T10:36:28;-2.10;99.90
770;DHT22;368;48.698;9.116;2024-01-10T10:38:59;-1.90;99.90
770;DHT22;368;48.698;9.116;2024-01-10T10:41:32;-1.90;99.90
770;DHT22;368;48.698;9.116;2024-01-10T10:44:03;-2.00;99.90
770;DHT22;368;48.698;9.116;2024-01-10T10:46:32;-1.90;99.90
770;DHT22;368;48.698;9.116;2024-01-10T10:49:05;-1.90;99.90
770;DHT22;368;48.698;9.116;2024-01-10T10:51:33;-1.50;99.80
770;DHT22;368;48.698;9.116;2024-01-10T10:54:02;-1.70;99.90
770;DHT22;368;48.698;9.116;2024-01-10T10:56:33;-1.70;99.50
770;DHT22;368;48.698;9.116;2024-01-10T10:59:01;-1.60;99.70
770;DHT22;368;48.698;9.116;2024-01-10T11:01:29;-1.70;99.80
770;DHT22;368;48.698;9.116;2024-01-10T11:03:58;-1.90;99.60
770;DHT22;368;48.698;9.116;2024-01-10T11:06:25;-1.80;99.90
770;DHT22;368;48.698;9.116;2024-01-10T11:08:55;-1.70;99.90
770;DHT22;368;48.698;9.116;2024-01-10T11:11:35;-1.60;99.30
770;DHT22;368;48.698;9.116;2024-01-10T11:14:21;-1.50;99.30
770;DHT22;368;48.698;9.116;2024-01-10T11:20:12;-1.70;99.30
770;DHT22;368;48.698;9.116;2024-01-10T11:25:31;-1.40;99.90
770;DHT22;368;48.698;9.116;2024-01-10T11:28:04;-1.30;99.80
770;DHT22;368;48.698;9.116;2024-01-10T11:30:34;-1.60;99.50
770;DHT22;368;48.698;9.116;2024-01-10T11:33:19;-1.30;99.60
770;DHT22;368;48.698;9.116;2024-01-10T11:36:07;-1.00;99.10
770;DHT22;368;48.698;9.116;2024-01-10T11:38:39;-0.90;99.50
770;DHT22;368;48.698;9.116;2024-01-10T11:41:06;-0.20;99.10
770;DHT22;368;48.698;9.116;2024-01-10T11:43:35;0.60;98.30
770;DHT22;368;48.698;9.116;2024-01-10T11:46:02;3.60;96.00
770;DHT22;368;48.698;9.116;2024-01-10T11:48:31;5.40;89.20
770;DHT22;368;48.698;9.116;2024-01-10T11:51:01;5.60;85.50
770;DHT22;368;48.698;9.116;2024-01-10T11:53:42;7.30;81.10
770;DHT22;368;48.698;9.116;2024-01-10T11:56:13;7.90;72.90
770;DHT22;368;48.698;9.116;2024-01-10T11:59:01;9.00;69.90
770;DHT22;368;48.698;9.116;2024-01-10T12:01:30;8.60;67.80
770;DHT22;368;48.698;9.116;2024-01-10T12:04:00;9.20;66.60
770;DHT22;368;48.698;9.116;2024-01-10T12:06:27;8.50;67.60
770;DHT22;368;48.698;9.116;2024-01-10T12:08:54;8.70;69.00
770;DHT22;368;48.698;9.116;2024-01-10T12:11:21;9.10;67.90
770;DHT22;368;48.698;9.116;2024-01-10T12:13:49;8.30;67.10
770;DHT22;368;48.698;9.116;2024-01-10T12:16:18;10.40;66.50
770;DHT22;368;48.698;9.116;2024-01-10T12:18:45;11.20;59.40
770;DHT22;368;48.698;9.116;2024-01-10T12:21:12;10.60;58.00
770;DHT22;368;48.698;9.116;2024-01-10T12:23:39;9.90;61.20
770;DHT22;368;48.698;9.116;2024-01-10T12:26:08;9.40;61.00
770;DHT22;368;48.698;9.116;2024-01-10T12:28:38;8.10;64.70
770;DHT22;368;48.698;9.116;2024-01-10T12:31:05;10.20;62.50
770;DHT22;368;48.698;9.116;2024-01-10T12:33:36;9.60;62.10
770;DHT22;368;48.698;9.116;2024-01-10T12:36:06;10.40;58.90
770;DHT22;368;48.698;9.116;2024-01-10T12:38:34;10.60;59.10
770;DHT22;368;48.698;9.116;2024-01-10T12:41:01;9.50;59.80
770;DHT22;368;48.698;9.116;2024-01-10T12:43:27;8.80;61.70
770;DHT22;368;48.698;9.116;2024-01-10T12:46:08;8.30;64.20
770;DHT22;368;48.698;9.116;2024-01-10T12:48:38;7.90;67.90
770;DHT22;368;48.698;9.116;2024-01-10T12:51:07;9.20;65.40
770;DHT22;368;48.698;9.116;2024-01-10T12:53:34;9.30;63.80
770;DHT22;368;48.698;9.116;2024-01-10T12:56:01;8.70;67.00
770;DHT22;368;48.698;9.116;2024-01-10T12:58:29;8.40;65.20
770;DHT22;368;48.698;9.116;2024-01-10T13:00:55;8.80;67.60
770;DHT22;368;48.698;9.116;2024-01-10T13:03:23;9.90;63.90
770;DHT22;368;48.698;9.116;2024-01-10T13:05:51;10.30;61.80
770;DHT22;368;48.698;9.116;2024-01-10T13:08:18;8.20;65.10
770;DHT22;368;48.698;9.116;2024-01-10T13:10:45;8.60;67.70
770;DHT22;368;48.698;9.116;2024-01-10T13:13:13;8.30;62.80
770;DHT22;368;48.698;9.116;2024-01-10T13:15:39;9.00;66.20
770;DHT22;368;48.698;9.116;2024-01-10T13:18:08;9.00;66.60
770;DHT22;368;48.698;9.116;2024-01-10T13:20:35;8.20;64.50
770;DHT22;368;48.698;9.116;2024-01-10T13:23:05;8.30;67.00
770;DHT22;368;48.698;9.116;2024-01-10T13:25:33;8.80;67.10
770;DHT22;368;48.698;9.116;2024-01-10T13:28:00;10.00;63.90
770;DHT22;368;48.698;9.116;2024-01-10T13:30:27;10.00;62.00
770;DHT22;368;48.698;9.116;2024-01-10T13:32:54;8.90;63.60
770;DHT22;368;48.698;9.116;2024-01-10T13:35:20;9.30;65.60
770;DHT22;368;48.698;9.116;2024-01-10T13:37:48;9.90;64.70
770;DHT22;368;48.698;9.116;2024-01-10T13:40:16;8.70;63.70
770;DHT22;368;48.698;9.116;2024-01-10T13:42:45;6.80;66.00
770;DHT22;368;48.698;9.116;2024-01-10T13:45:12;8.40;69.30
770;DHT22;368;48.698;9.116;2024-01-10T13:47:39;8.00;66.40
770;DHT22;368;48.698;9.116;2024-01-10T13:50:07;6.00;70.70
770;DHT22;368;48.698;9.116;2024-01-10T13:52:35;6.90;72.50
770;DHT22;368;48.698;9.116;2024-01-10T13:55:02;7.10;70.40
770;DHT22;368;48.698;9.116;2024-01-10T13:57:31;8.50;68.00
770;DHT22;368;48.698;9.116;2024-01-10T13:59:59;8.30;68.40
770;DHT22;368;48.698;9.116;2024-01-10T14:02:25;9.40;65.90
770;DHT22;368;48.698;9.116;2024-01-10T14:04:53;8.60;65.30
770;DHT22;368;48.698;9.116;2024-01-10T14:07:23;7.80;68.00
770;DHT22;368;48.698;9.116;2024-01-10T14:09:49;8.30;68.80
770;DHT22;368;48.698;9.116;2024-01-10T14:12:16;8.60;66.70
770;DHT22;368;48.698;9.116;2024-01-10T14:14:44;8.40;65.90
770;DHT22;368;48.698;9.116;2024-01-10T14:17:11;7.90;66.60
770;DHT22;368;48.698;9.116;2024-01-10T14:19:38;7.10;70.50
770;DHT22;368;48.698;9.116;2024-01-10T14:22:05;7.00;69.90
770;DHT22;368;48.698;9.116;2024-01-10T14:24:32;6.60;71.20
770;DHT22;368;48.698;9.116;2024-01-10T14:26:59;7.40;69.90
770;DHT22;368;48.698;9.116;2024-01-10T14:29:26;7.70;68.60
770;DHT22;368;48.698;9.116;2024-01-10T14:31:54;8.00;69.10
770;DHT22;368;48.698;9.116;2024-01-10T14:34:21;7.60;68.50
770;DHT22;368;48.698;9.116;2024-01-10T14:36:47;6.70;69.00
770;DHT22;368;48.698;9.116;2024-01-10T14:39:14;5.60;71.60
770;DHT22;368;48.698;9.116;2024-01-10T14:41:41;4.10;75.80
770;DHT22;368;48.698;9.116;2024-01-10T14:44:08;3.40;79.00
770;DHT22;368;48.698;9.116;2024-01-10T14:46:35;3.00;81.90
770;DHT22;368;48.698;9.116;2024-01-10T14:49:03;1.80;86.90
770;DHT22;368;48.698;9.116;2024-01-10T14:51:30;1.80;89.80
770;DHT22;368;48.698;9.116;2024-01-10T14:53:58;1.90;90.40
770;DHT22;368;48.698;9.116;2024-01-10T14:56:25;1.80;90.70
770;DHT22;368;48.698;9.116;2024-01-10T14:58:52;1.90;91.20
770;DHT22;368;48.698;9.116;2024-01-10T15:01:19;1.60;91.70
770;DHT22;368;48.698;9.116;2024-01-10T15:03:46;1.50;92.30
770;DHT22;368;48.698;9.116;2024-01-10T15:06:14;1.70;92.80
770;DHT22;368;48.698;9.116;2024-01-10T15:08:41;2.00;93.20
770;DHT22;368;48.698;9.116;2024-01-10T15:11:07;2.70;92.50
770;DHT22;368;48.698;9.116;2024-01-10T15:13:36;3.40;91.50
770;DHT22;368;48.698;9.116;2024-01-10T15:16:03;3.90;90.40
770;DHT22;368;48.698;9.116;2024-01-10T15:18:30;3.90;90.10
770;DHT22;368;48.698;9.116;2024-01-10T15:20:58;4.10;90.00
770;DHT22;368;48.698;9.116;2024-01-10T15:23:26;4.10;89.50
770;DHT22;368;48.698;9.116;2024-01-10T15:25:53;3.80;88.90
770;DHT22;368;48.698;9.116;2024-01-10T15:28:20;3.20;89.10
770;DHT22;368;48.698;9.116;2024-01-10T15:30:47;2.60;90.50
770;DHT22;368;48.698;9.116;2024-01-10T15:33:14;2.10;91.20
770;DHT22;368;48.698;9.116;2024-01-10T15:35:41;1.60;91.90
770;DHT22;368;48.698;9.116;2024-01-10T15:38:08;1.00;92.60
770;DHT22;368;48.698;9.116;2024-01-10T15:40:36;0.50;94.00
770;DHT22;368;48.698;9.116;2024-01-10T15:43:03;0.30;95.40
770;DHT22;368;48.698;9.116;2024-01-10T15:45:30;-0.40;96.70
770;DHT22;368;48.698;9.116;2024-01-10T15:47:57;-0.40;98.00
770;DHT22;368;48.698;9.116;2024-01-10T15:50:24;-0.50;98.60
770;DHT22;368;48.698;9.116;2024-01-10T15:52:50;-0.80;99.50
770;DHT22;368;48.698;9.116;2024-01-10T15:55:17;-1.10;99.90
770;DHT22;368;48.698;9.116;2024-01-10T15:57:46;-1.10;99.90
770;DHT22;368;48.698;9.116;2024-01-10T16:00:13;-1.10;99.90
770;DHT22;368;48.698;9.116;2024-01-10T16:02:40;-1.10;99.90
770;DHT22;368;48.698;9.116;2024-01-10T16:05:08;-1.20;99.90
770;DHT22;368;48.698;9.116;2024-01-10T16:07:35;-1.30;99.90
770;DHT22;368;48.698;9.116;2024-01-10T16:10:02;-1.50;99.90
770;DHT22;368;48.698;9.116;2024-01-10T16:12:29;-1.40;99.90
770;DHT22;368;48.698;9.116;2024-01-10T16:14:57;-1.60;99.90
770;DHT22;368;48.698;9.116;2024-01-10T16:17:24;-1.60;99.90
770;DHT22;368;48.698;9.116;2024-01-10T16:19:51;-1.60;99.90
770;DHT22;368;48.698;9.116;2024-01-10T16:22:18;-1.90;99.90
770;DHT22;368;48.698;9.116;2024-01-10T16:24:44;-1.70;99.90
770;DHT22;368;48.698;9.116;2024-01-10T16:27:11;-2.10;99.90
770;DHT22;368;48.698;9.116;2024-01-10T16:29:38;-2.00;99.90
770;DHT22;368;48.698;9.116;2024-01-10T16:32:07;-2.00;99.90
770;DHT22;368;48.698;9.116;2024-01-10T16:34:33;-2.20;99.90
770;DHT22;368;48.698;9.116;2024-01-10T16:37:00;-2.20;99.90
770;DHT22;368;48.698;9.116;2024-01-10T16:39:27;-2.30;99.90
770;DHT22;368;48.698;9.116;2024-01-10T16:41:54;-2.10;99.90
770;DHT22;368;48.698;9.116;2024-01-10T16:44:21;-2.30;99.90
770;DHT22;368;48.698;9.116;2024-01-10T16:46:48;-2.30;99.90
770;DHT22;368;48.698;9.116;2024-01-10T16:49:16;-2.30;99.90